sensor_id;sensor_type;location;lat;lon;timestamp;pressure;altitude;pressure_sealevel;temperature;humidity
39309;BME280;26019;47.510;19.122;2023-05-08T00:07:27;100691.88;;;9.73;100.00
39309;BME280;26019;47.510;19.122;2023-05-08T00:17:30;100689.31;;;9.82;100.00
39309;BME280;26019;47.510;19.122;2023-05-08T00:27:33;100690.16;;;9.71;100.00
39309;BME280;26019;47.510;19.122;2023-05-08T00:37:35;100702.00;;;9.32;100.00
39309;BME280;26019;47.510;19.122;2023-05-08T00:47:39;100698.56;;;9.27;100.00
39309;BME280;26019;47.510;19.122;2023-05-08T00:57:43;100701.91;;;9.10;100.00
39309;BME280;26019;47.510;19.122;2023-05-08T01:07:50;100696.59;;;8.89;100.00
39309;BME280;26019;47.510;19.122;2023-05-08T01:18:17;100718.00;;;8.80;100.00
39309;BME280;26019;47.510;19.122;2023-05-08T01:39:21;100729.94;;;8.69;100.00
39309;BME280;26019;47.510;19.122;2023-05-08T01:49:48;100739.53;;;8.88;100.00
39309;BME280;26019;47.510;19.122;2023-05-08T01:59:53;100737.03;;;8.98;100.00
39309;BME280;26019;47.510;19.122;2023-05-08T02:09:57;100753.38;;;9.01;100.00
39309;BME280;26019;47.510;19.122;2023-05-08T02:20:00;100755.97;;;9.00;100.00
39309;BME280;26019;47.510;19.122;2023-05-08T02:30:16;100749.13;;;9.06;100.00
39309;BME280;26019;47.510;19.122;2023-05-08T02:40:19;100756.84;;;9.03;100.00
39309;BME280;26019;47.510;19.122;2023-05-08T02:50:28;100752.44;;;8.87;100.00
39309;BME280;26019;47.510;19.122;2023-05-08T03:00:55;100761.81;;;8.77;100.00
39309;BME280;26019;47.510;19.122;2023-05-08T03:11:02;100761.78;;;8.74;100.00
39309;BME280;26019;47.510;19.122;2023-05-08T03:21:12;100752.38;;;8.82;100.00
39309;BME280;26019;47.510;19.122;2023-05-08T03:31:20;100763.78;;;9.10;100.00
39309;BME280;26019;47.510;19.122;2023-05-08T03:41:25;100772.59;;;9.47;100.00
39309;BME280;26019;47.510;19.122;2023-05-08T03:51:28;100766.75;;;9.82;100.00
39309;BME280;26019;47.510;19.122;2023-05-08T04:01:59;100772.91;;;10.12;100.00
39309;BME280;26019;47.510;19.122;2023-05-08T04:12:21;100783.28;;;10.24;100.00
39309;BME280;26019;47.510;19.122;2023-05-08T04:22:28;100799.69;;;10.43;100.00
39309;BME280;26019;47.510;19.122;2023-05-08T04:32:41;100812.69;;;10.71;100.00
39309;BME280;26019;47.510;19.122;2023-05-08T04:42:53;100823.91;;;10.73;100.00
39309;BME280;26019;47.510;19.122;2023-05-08T04:53:01;100840.28;;;10.89;94.49
39309;BME280;26019;47.510;19.122;2023-05-08T05:03:03;100843.72;;;10.88;87.33
39309;BME280;26019;47.510;19.122;2023-05-08T05:13:05;100864.41;;;11.04;84.65
39309;BME280;26019;47.510;19.122;2023-05-08T05:23:08;100869.63;;;11.19;82.29
39309;BME280;26019;47.510;19.122;2023-05-08T05:33:11;100869.59;;;11.41;76.28
39309;BME280;26019;47.510;19.122;2023-05-08T05:43:13;100885.97;;;11.63;73.57
39309;BME280;26019;47.510;19.122;2023-05-08T05:53:15;100888.53;;;11.71;73.54
39309;BME280;26019;47.510;19.122;2023-05-08T06:03:20;100889.31;;;12.15;69.58
39309;BME280;26019;47.510;19.122;2023-05-08T06:13:22;100882.28;;;12.50;72.29
39309;BME280;26019;47.510;19.122;2023-05-08T06:23:25;100882.94;;;12.89;67.14
39309;BME280;26019;47.510;19.122;2023-05-08T06:33:30;100890.91;;;13.75;62.57
39309;BME280;26019;47.510;19.122;2023-05-08T06:43:33;100888.78;;;14.11;58.79
39309;BME280;26019;47.510;19.122;2023-05-08T06:53:37;100901.31;;;13.73;57.93
39309;BME280;26019;47.510;19.122;2023-05-08T07:03:41;100911.56;;;14.62;55.54
39309;BME280;26019;47.510;19.122;2023-05-08T07:13:45;100908.63;;;14.89;52.88
39309;BME280;26019;47.510;19.122;2023-05-08T07:23:51;100912.50;;;14.55;52.56
39309;BME280;26019;47.510;19.122;2023-05-08T07:33:54;100908.31;;;14.46;53.47
39309;BME280;26019;47.510;19.122;2023-05-08T07:43:55;100912.84;;;14.29;54.01
39309;BME280;26019;47.510;19.122;2023-05-08T07:53:59;100913.94;;;14.81;53.26
39309;BME280;26019;47.510;19.122;2023-05-08T08:04:01;100915.66;;;15.38;52.09
39309;BME280;26019;47.510;19.122;2023-05-08T08:14:03;100899.91;;;15.46;52.06
39309;BME280;26019;47.510;19.122;2023-05-08T08:24:05;100907.81;;;15.42;52.44
39309;BME280;26019;47.510;19.122;2023-05-08T08:34:07;100904.38;;;15.90;50.92
39309;BME280;26019;47.510;19.122;2023-05-08T08:44:13;100901.28;;;16.16;47.54
39309;BME280;26019;47.510;19.122;2023-05-08T08:54:20;100893.66;;;16.89;45.37
39309;BME280;26019;47.510;19.122;2023-05-08T09:04:23;100887.94;;;17.46;44.14
39309;BME280;26019;47.510;19.122;2023-05-08T09:14:29;100880.94;;;21.19;36.24
39309;BME280;26019;47.510;19.122;2023-05-08T09:24:54;100874.75;;;23.67;31.09
39309;BME280;26019;47.510;19.122;2023-05-08T09:35:00;100881.56;;;25.32;28.56
39309;BME280;26019;47.510;19.122;2023-05-08T09:45:04;100879.66;;;26.64;25.96
39309;BME280;26019;47.510;19.122;2023-05-08T09:55:10;100872.72;;;28.33;23.29
39309;BME280;26019;47.510;19.122;2023-05-08T10:05:31;100865.06;;;29.01;21.54
39309;BME280;26019;47.510;19.122;2023-05-08T10:15:36;100860.50;;;30.07;22.00
39309;BME280;26019;47.510;19.122;2023-05-08T10:25:54;100850.19;;;32.36;18.76
39309;BME280;26019;47.510;19.122;2023-05-08T10:36:02;100836.94;;;32.25;17.13
39309;BME280;26019;47.510;19.122;2023-05-08T10:46:29;100821.19;;;31.50;19.90
39309;BME280;26019;47.510;19.122;2023-05-08T10:56:38;100832.28;;;33.15;16.10
39309;BME280;26019;47.510;19.122;2023-05-08T11:06:47;100822.72;;;33.88;15.60
39309;BME280;26019;47.510;19.122;2023-05-08T11:26:55;100821.28;;;33.66;16.45
39309;BME280;26019;47.510;19.122;2023-05-08T11:37:00;100818.72;;;34.75;16.01
39309;BME280;26019;47.510;19.122;2023-05-08T11:47:04;100818.66;;;35.72;15.06
39309;BME280;26019;47.510;19.122;2023-05-08T11:57:07;100824.28;;;33.91;14.08
39309;BME280;26019;47.510;19.122;2023-05-08T12:07:12;100806.56;;;35.41;14.11
39309;BME280;26019;47.510;19.122;2023-05-08T12:17:18;100803.00;;;37.01;13.74
39309;BME280;26019;47.510;19.122;2023-05-08T12:27:24;100817.50;;;34.51;15.05
39309;BME280;26019;47.510;19.122;2023-05-08T12:37:28;100805.84;;;32.53;16.23
39309;BME280;26019;47.510;19.122;2023-05-08T12:47:30;100818.16;;;32.05;15.59
39309;BME280;26019;47.510;19.122;2023-05-08T12:57:31;100811.22;;;37.00;12.32
39309;BME280;26019;47.510;19.122;2023-05-08T13:07:35;100819.78;;;32.96;13.94
39309;BME280;26019;47.510;19.122;2023-05-08T13:17:37;100827.19;;;35.67;13.13
39309;BME280;26019;47.510;19.122;2023-05-08T13:27:39;100820.41;;;37.39;11.60
39309;BME280;26019;47.510;19.122;2023-05-08T13:37:41;100824.00;;;37.71;10.40
39309;BME280;26019;47.510;19.122;2023-05-08T13:47:47;100821.94;;;39.42;9.32
39309;BME280;26019;47.510;19.122;2023-05-08T13:57:49;100813.09;;;36.83;10.81
39309;BME280;26019;47.510;19.122;2023-05-08T14:07:51;100822.03;;;39.04;9.70
39309;BME280;26019;47.510;19.122;2023-05-08T14:17:56;100816.38;;;37.26;9.41
39309;BME280;26019;47.510;19.122;2023-05-08T14:27:58;100811.50;;;34.75;10.46
39309;BME280;26019;47.510;19.122;2023-05-08T14:38:02;100826.31;;;30.68;12.55
39309;BME280;26019;47.510;19.122;2023-05-08T14:48:05;100822.09;;;37.79;9.52
39309;BME280;26019;47.510;19.122;2023-05-08T14:58:07;100814.78;;;37.97;9.42
39309;BME280;26019;47.510;19.122;2023-05-08T15:08:09;100819.78;;;33.06;12.01
39309;BME280;26019;47.510;19.122;2023-05-08T15:18:11;100820.84;;;30.91;14.38
39309;BME280;26019;47.510;19.122;2023-05-08T15:28:15;100818.28;;;33.41;12.46
39309;BME280;26019;47.510;19.122;2023-05-08T15:38:18;100822.66;;;31.64;15.51
39309;BME280;26019;47.510;19.122;2023-05-08T15:48:21;100822.22;;;29.40;16.83
39309;BME280;26019;47.510;19.122;2023-05-08T15:58:24;100823.84;;;27.34;19.15
39309;BME280;26019;47.510;19.122;2023-05-08T16:08:26;100827.28;;;28.12;20.82
39309;BME280;26019;47.510;19.122;2023-05-08T16:18:29;100831.78;;;27.34;21.21
39309;BME280;26019;47.510;19.122;2023-05-08T16:28:31;100847.16;;;25.48;23.25
39309;BME280;26019;47.510;19.122;2023-05-08T16:38:33;100863.13;;;22.07;28.07
39309;BME280;26019;47.510;19.122;2023-05-08T16:48:36;100868.06;;;23.60;26.12
39309;BME280;26019;47.510;19.122;2023-05-08T16:58:40;100885.81;;;23.74;25.03
39309;BME280;26019;47.510;19.122;2023-05-08T17:08:44;100915.03;;;20.05;29.15
39309;BME280;26019;47.510;19.122;2023-05-08T17:18:47;100922.59;;;17.19;34.36
39309;BME280;26019;47.510;19.122;2023-05-08T17:28:51;100940.00;;;16.36;35.64
39309;BME280;26019;47.510;19.122;2023-05-08T17:39:06;100968.69;;;15.34;37.42
39309;BME280;26019;47.510;19.122;2023-05-08T17:49:08;100989.78;;;14.45;38.43
39309;BME280;26019;47.510;19.122;2023-05-08T17:59:10;101003.41;;;13.82;39.92
39309;BME280;26019;47.510;19.122;2023-05-08T18:09:14;101019.25;;;13.48;41.77
39309;BME280;26019;47.510;19.122;2023-05-08T18:19:16;101040.16;;;13.13;43.16
39309;BME280;26019;47.510;19.122;2023-05-08T18:29:19;101055.88;;;12.79;44.66
39309;BME280;26019;47.510;19.122;2023-05-08T18:39:23;101073.25;;;12.55;45.61
39309;BME280;26019;47.510;19.122;2023-05-08T18:49:26;101090.56;;;12.15;46.00
39309;BME280;26019;47.510;19.122;2023-05-08T18:59:29;101107.78;;;11.85;47.45
39309;BME280;26019;47.510;19.122;2023-05-08T19:09:33;101111.22;;;11.71;48.69
39309;BME280;26019;47.510;19.122;2023-05-08T19:19:34;101124.09;;;11.39;49.58
39309;BME280;26019;47.510;19.122;2023-05-08T19:29:36;101124.88;;;11.30;51.18
39309;BME280;26019;47.510;19.122;2023-05-08T19:39:38;101121.38;;;11.17;51.45
39309;BME280;26019;47.510;19.122;2023-05-08T19:49:40;101129.94;;;10.99;52.75
39309;BME280;26019;47.510;19.122;2023-05-08T19:59:42;101126.41;;;10.81;53.27
39309;BME280;26019;47.510;19.122;2023-05-08T20:09:44;101127.22;;;10.75;54.49
39309;BME280;26019;47.510;19.122;2023-05-08T20:19:46;101139.84;;;10.35;55.73
39309;BME280;26019;47.510;19.122;2023-05-08T20:29:49;101142.97;;;10.01;58.04
39309;BME280;26019;47.510;19.122;2023-05-08T20:39:51;101138.59;;;9.94;59.22
39309;BME280;26019;47.510;19.122;2023-05-08T20:49:53;101143.50;;;9.68;61.20
39309;BME280;26019;47.510;19.122;2023-05-08T20:59:56;101139.00;;;9.51;63.11
39309;BME280;26019;47.510;19.122;2023-05-08T21:10:00;101138.91;;;9.44;64.30
39309;BME280;26019;47.510;19.122;2023-05-08T21:20:09;101130.09;;;9.24;65.52
39309;BME280;26019;47.510;19.122;2023-05-08T21:30:16;101131.53;;;9.02;68.06
39309;BME280;26019;47.510;19.122;2023-05-08T21:40:19;101133.00;;;8.85;70.46
39309;BME280;26019;47.510;19.122;2023-05-08T21:50:22;101129.25;;;8.61;74.25
39309;BME280;26019;47.510;19.122;2023-05-08T22:00:25;101116.31;;;8.58;74.95
39309;BME280;26019;47.510;19.122;2023-05-08T22:10:27;101107.69;;;8.56;75.02
39309;BME280;26019;47.510;19.122;2023-05-08T22:20:32;101111.00;;;8.48;75.25
39309;BME280;26019;47.510;19.122;2023-05-08T22:30:36;101095.47;;;8.45;74.28
39309;BME280;26019;47.510;19.122;2023-05-08T22:40:40;101093.59;;;8.35;72.75
39309;BME280;26019;47.510;19.122;2023-05-08T22:50:44;101096.72;;;8.15;76.96
39309;BME280;26019;47.510;19.122;2023-05-08T23:00:47;101092.31;;;8.08;78.58
39309;BME280;26019;47.510;19.122;2023-05-08T23:10:49;101099.72;;;7.89;80.10
39309;BME280;26019;47.510;19.122;2023-05-08T23:21:14;101097.56;;;7.65;82.93
39309;BME280;26019;47.510;19.122;2023-05-08T23:31:20;101091.13;;;7.41;86.08
39309;BME280;26019;47.510;19.122;2023-05-08T23:41:22;101081.84;;;7.50;86.39
39309;BME280;26019;47.510;19.122;2023-05-08T23:51:24;101071.72;;;7.57;84.51
